Flight Track Log - Related Links

Times and Time Zones

All times are in EDT time to prevent confusion due to time zone crossing. See the N702H flight status page for this flight to view local times or setup timezone preferences in your user account.

Time Position Orientation Groundspeed Altitude Reporting Facility
EDT Latitude Longitude Course Direction KTS MPH feet Rate Location/Type
Sat 01:12:33 PM 36.8028 -96.1408 287° West 133 153 5,300  Level Kansas City Center
Sat 01:13:33 PM 36.8158 -96.1942 287° West 151 174 6,700 1,279 Climbing Kansas City Center
Sat 01:14:35 PM 36.8286 -96.2500 286° West 163 188 7,900 1,238 Climbing Kansas City Center
Sat 01:15:39 PM 36.8392 -96.3033 284° West 163 188 9,300 1,392 Climbing Kansas City Center
Sat 01:16:40 PM 36.8475 -96.3569 281° West 160 184 10,800 1,440 Climbing Kansas City Center
Sat 01:17:44 PM 36.8694 -96.4008 302° West 156 180 12,300 1,392 Climbing Kansas City Center
Sat 01:18:45 PM 36.8989 -96.4367 316° Northwest 150 173 13,700 1,561 Climbing Kansas City Center
Sat 01:19:47 PM 36.9272 -96.4797 309° West 137 158 15,500 1,488 Climbing Kansas City Center
Sat 01:20:50 PM 36.9531 -96.5128 314° West 135 155 16,800 1,161 Climbing Kansas City Center
Sat 01:21:51 PM 36.9736 -96.5481 306° West 130 150 17,900 1,161 Climbing Kansas City Center
Sat 01:22:54 PM 36.9800 -96.5900 281° West 124 143 19,200 1,210 Climbing Kansas City Center
Sat 01:23:55 PM 36.9881 -96.6289 285° West 120 138 20,400 1,180 Climbing Kansas City Center
Sat 01:24:56 PM 36.9953 -96.6697 282° West 120 138 21,600 1,296 Climbing Kansas City Center
Sat 01:26:00 PM 37.0044 -96.7192 283° West 120 138 23,100 1,296 Climbing Kansas City Center
Sat 01:27:01 PM 37.0128 -96.7611 284° West 121 139 24,300 1,152 Climbing Kansas City Center
Sat 01:28:05 PM 37.0200 -96.8003 283° West 121 139 25,500 816 Climbing Kansas City Center
Sat 01:29:06 PM 37.0272 -96.8406 283° West 121 139 26,000 248 Climbing Kansas City Center
Sat 01:30:06 PM 37.0364 -96.9025 281° West 168 193 26,000  Level Kansas City Center
Sat 01:31:10 PM 37.0542 -96.9836 285° West 196 226 26,000  Level Kansas City Center
Sat 01:32:11 PM 37.0669 -97.0533 283° West 202 232 26,000  Level Kansas City Center
Sat 01:33:12 PM 37.0792 -97.1250 282° West 205 236 26,000  Level Kansas City Center
Sat 01:34:16 PM 37.0928 -97.1969 283° West 209 241 26,000  Level Kansas City Center
Sat 01:35:17 PM 37.1044 -97.2675 282° West 209 241 26,000  Level Kansas City Center
Sat 01:36:21 PM 37.1175 -97.3386 283° West 209 241 26,000  Level Kansas City Center
Sat 01:37:22 PM 37.1319 -97.4242 282° West 209 241 26,000  Level Kansas City Center
Sat 01:38:23 PM 37.1458 -97.4958 284° West 209 241 26,000  Level Kansas City Center
Sat 01:39:26 PM 37.1583 -97.5675 282° West 210 242 26,000  Level Kansas City Center
Sat 01:40:28 PM 37.1700 -97.6394 282° West 210 242 26,000  Level Kansas City Center
Sat 01:41:29 PM 37.1825 -97.7103 283° West 209 241 26,000  Level Kansas City Center
Sat 01:42:32 PM 37.1953 -97.7828 282° West 210 242 26,000  Level Kansas City Center
Sat 01:43:33 PM 37.2111 -97.8683 283° West 210 242 26,000  Level Kansas City Center
Sat 01:44:38 PM 37.2228 -97.9414 281° West 210 242 26,000  Level Kansas City Center
Sat 01:45:38 PM 37.2358 -98.0139 283° West 211 243 26,000  Level Kansas City Center
Sat 01:46:41 PM 37.2481 -98.0858 282° West 211 243 26,000  Level Kansas City Center
Sat 01:47:42 PM 37.2617 -98.1569 284° West 211 243 26,000  Level Kansas City Center
Sat 01:48:45 PM 37.2739 -98.2289 282° West 211 243 26,000  Level Kansas City Center
Sat 01:49:46 PM 37.2856 -98.3003 282° West 210 242 26,000  Level Kansas City Center
Sat 01:50:47 PM 37.2994 -98.3861 282° West 210 242 26,000  Level Kansas City Center
Sat 01:51:51 PM 37.3122 -98.4575 283° West 210 242 26,000  Level Kansas City Center
Sat 01:52:54 PM 37.3242 -98.5300 282° West 210 242 26,000  Level Kansas City Center
Sat 01:53:55 PM 37.3358 -98.6011 282° West 210 242 26,000  Level Kansas City Center
Sat 01:54:56 PM 37.3486 -98.6728 283° West 210 242 26,000  Level Kansas City Center
Sat 01:55:57 PM 37.3600 -98.7450 281° West 210 242 26,000  Level Kansas City Center
Sat 01:57:01 PM 37.3736 -98.8314 281° West 210 242 26,000  Level Kansas City Center
Sat 01:58:02 PM 37.3869 -98.9006 284° West 210 242 26,000  Level Kansas City Center
Sat 01:59:06 PM 37.3978 -98.9714 281° West 210 242 26,000  Level Kansas City Center
Sat 02:00:07 PM 37.4092 -99.0444 281° West 210 242 26,000  Level Kansas City Center
Sat 02:01:08 PM 37.4214 -99.1167 282° West 210 242 26,000  Level Kansas City Center
Sat 02:02:11 PM 37.4331 -99.1883 282° West 210 242 26,000  Level Kansas City Center
Sat 02:03:12 PM 37.4469 -99.2739 282° West 210 242 26,000  Level Kansas City Center
Sat 02:04:17 PM 37.4586 -99.3461 282° West 210 242 26,000  Level Kansas City Center
Sat 02:05:17 PM 37.4719 -99.4175 283° West 210 242 26,000  Level Kansas City Center
Sat 02:06:18 PM 37.4819 -99.4950 279° West 209 241 26,000  Level Kansas City Center
Sat 02:07:22 PM 37.4939 -99.5642 282° West 209 241 26,000  Level Kansas City Center
Sat 02:08:24 PM 37.5069 -99.6453 281° West 209 241 26,000  Level Kansas City Center
Sat 02:09:25 PM 37.5178 -99.7150 281° West 209 241 26,000  Level Kansas City Center
Sat 02:10:27 PM 37.5311 -99.7956 282° West 210 242 26,000  Level Kansas City Center
Sat 02:11:31 PM 37.5419 -99.8672 281° West 211 243 26,000  Level Kansas City Center
Sat 02:12:31 PM 37.5553 -99.9478 282° West 212 244 26,000  Level Kansas City Center
Sat 02:13:32 PM 37.5661 -100.0172 281° West 212 244 26,000  Level Kansas City Center
Sat 02:14:36 PM 37.5786 -100.0981 281° West 211 243 26,000  Level Kansas City Center
Sat 02:15:39 PM 37.5892 -100.1686 281° West 211 243 26,000  Level Kansas City Center
Sat 02:16:40 PM 37.6011 -100.2503 280° West 212 244 26,000  Level Kansas City Center
Sat 02:17:41 PM 37.6122 -100.3206 281° West 212 244 26,000  Level Kansas City Center
Sat 02:18:45 PM 37.6250 -100.4031 281° West 212 244 26,000  Level Kansas City Center
Sat 02:19:46 PM 37.6361 -100.4742 281° West 212 244 26,000  Level Kansas City Center
Sat 02:20:50 PM 37.6461 -100.5436 280° West 213 245 26,000  Level Kansas City Center
Sat 02:21:51 PM 37.6603 -100.6319 281° West 213 245 26,000  Level Kansas City Center
Sat 02:22:52 PM 37.6706 -100.7050 280° West 213 245 26,000  Level Kansas City Center
Sat 02:23:53 PM 37.6819 -100.7772 281° West 213 245 26,000  Level Kansas City Center
Sat 02:24:57 PM 37.6933 -100.8503 281° West 213 245 26,000  Level Kansas City Center
Sat 02:26:00 PM 37.7028 -100.9239 279° West 212 244 26,000  Level Kansas City Center
Sat 02:27:01 PM 37.7131 -100.9997 280° West 215 247 26,000  Level Kansas City Center
Sat 02:28:02 PM 37.7239 -101.0728 281° West 214 246 26,000  Level Kansas City Center
Sat 02:29:06 PM 37.7367 -101.1614 280° West 214 246 26,000  Level Kansas City Center
Sat 02:30:07 PM 37.7472 -101.2317 281° West 214 246 26,000  Level Kansas City Center
Sat 02:31:08 PM 37.7589 -101.3136 280° West 214 246 26,000  Level Kansas City Center
Sat 02:32:12 PM 37.7686 -101.3844 280° West 214 246 26,000  Level Kansas City Center
Sat 02:33:12 PM 37.7803 -101.4669 280° West 214 246 26,000  Level Kansas City Center
Sat 02:34:16 PM 37.7908 -101.5381 281° West 214 246 26,000  Level Kansas City Center
Sat 02:35:16 PM 37.8028 -101.6200 280° West 214 246 26,000  Level Kansas City Center
Sat 02:36:17 PM 37.8128 -101.6919 280° West 214 246 26,000  Level Kansas City Center
Sat 02:37:21 PM 37.8219 -101.7631 279° West 214 246 26,000  Level Kansas City Center
Sat 02:38:22 PM 37.8342 -101.8461 281° West 214 246 26,000  Level Kansas City Center
Sat 02:39:24 PM 37.8442 -101.9164 280° West 214 246 26,000  Level Kansas City Center
Sat 02:40:27 PM 37.8556 -101.9983 280° West 214 246 26,000  Level Kansas City Center
Sat 02:41:28 PM 37.8644 -102.0686 279° West 214 246 26,000  Level Kansas City Center
Sat 02:42:29 PM 37.8761 -102.1511 280° West 213 245 26,000  Level Kansas City Center
Sat 02:43:32 PM 37.8864 -102.2228 280° West 214 246 26,000  Level Kansas City Center
Sat 02:44:33 PM 37.8975 -102.3075 279° West 215 247 26,000  Level Kansas City Center
Sat 02:45:34 PM 37.9061 -102.3789 279° West 215 247 26,000  Level Kansas City Center
Sat 02:46:38 PM 37.9183 -102.4617 281° West 215 247 26,000  Level Kansas City Center
Sat 02:47:39 PM 37.9272 -102.5339 279° West 215 247 26,000  Level Kansas City Center
Sat 02:48:40 PM 37.9358 -102.6050 279° West 215 247 26,000  Level Kansas City Center
Sat 02:49:41 PM 37.9483 -102.6881 281° West 215 247 26,000  Level Kansas City Center
Sat 02:50:56 PM 37.9589 -102.7750 279° West 216 249 26,000  Level Denver Center
Sat 02:51:58 PM 37.9700 -102.8583 280° West 216 249 26,000  Level Denver Center
Sat 02:53:00 PM 37.9781 -102.9300 278° West 216 249 26,000  Level Denver Center
Sat 02:54:02 PM 37.9903 -103.0139 280° West 216 249 26,000  Level Denver Center
Sat 02:55:03 PM 37.9994 -103.0861 279° West 217 250 26,000  Level Denver Center
Sat 02:56:05 PM 38.0103 -103.1706 279° West 217 250 26,000  Level Denver Center
Sat 02:57:07 PM 38.0189 -103.2411 279° West 216 249 26,000  Level Denver Center
Sat 02:58:09 PM 38.0289 -103.3225 279° West 213 245 26,000  Level Denver Center
Sat 02:59:11 PM 38.0375 -103.3933 279° West 212 244 26,000  Level Denver Center
Sat 03:00:12 PM 38.0467 -103.4633 279° West 212 244 26,000  Level Denver Center
Sat 03:01:14 PM 38.0561 -103.5458 278° West 212 244 26,000  Level Denver Center
Sat 03:02:16 PM 38.0653 -103.6161 279° West 212 244 26,000  Level Denver Center
Sat 03:03:18 PM 38.0753 -103.6983 279° West 212 244 26,000  Level Denver Center
Sat 03:04:20 PM 38.0836 -103.7675 279° West 211 243 26,000  Level Denver Center
Sat 03:05:22 PM 38.0942 -103.8486 279° West 210 242 26,000  Level Denver Center
Sat 03:06:24 PM 38.1025 -103.9203 278° West 212 244 26,000  Level Denver Center
Sat 03:07:25 PM 38.1125 -104.0022 279° West 212 244 26,000  Level Denver Center
Sat 03:08:27 PM 38.1203 -104.0725 278° West 212 244 26,000  Level Denver Center
Sat 03:09:29 PM 38.1303 -104.1550 279° West 212 244 26,000  Level Denver Center
Sat 03:10:31 PM 38.1389 -104.2239 279° West 210 242 26,000  Level Denver Center
Sat 03:11:33 PM 38.1492 -104.3050 279° West 209 241 26,000  Level Denver Center
Sat 03:12:35 PM 38.1553 -104.3744 276° West 208 239 26,000  Level Denver Center
Sat 03:13:37 PM 38.1642 -104.4411 280° West 206 237 26,000  Level Denver Center
Sat 03:14:38 PM 38.1719 -104.5203 277° West 205 236 26,000  Level Denver Center
Sat 03:15:40 PM 38.1800 -104.5892 278° West 204 235 26,000  Level Denver Center
Sat 03:16:42 PM 38.1908 -104.6719 279° West 207 238 26,000  Level Denver Center
Sat 03:17:44 PM 38.1975 -104.7422 277° West 207 238 26,000  Level Denver Center
Sat 03:18:46 PM 38.2081 -104.8253 279° West 210 242 26,000  Level Denver Center
Sat 03:19:48 PM 38.2153 -104.8975 277° West 211 243 26,000  Level Denver Center
Sat 03:20:50 PM 38.2250 -104.9775 279° West 211 243 26,000  Level Denver Center
Sat 03:21:52 PM 38.2322 -105.0467 278° West 210 242 26,000  Level Denver Center
Sat 03:22:54 PM 38.2408 -105.1275 278° West 208 239 26,000  Level Denver Center
Sat 03:23:56 PM 38.2483 -105.1972 278° West 208 239 26,000  Level Denver Center
Sat 03:24:58 PM 38.2556 -105.2656 278° West 207 238 26,000  Level Denver Center
Sat 03:26:00 PM 38.2642 -105.3419 278° West 199 229 26,000  Level Denver Center
Sat 03:27:01 PM 38.2728 -105.4103 279° West 200 230 26,000  Level Denver Center
Sat 03:28:03 PM 38.2808 -105.4883 278° West 200 230 26,000  Level Denver Center
Sat 03:29:05 PM 38.2869 -105.5547 277° West 200 230 26,000  Level Denver Center
Sat 03:30:07 PM 38.2950 -105.6378 277° West 208 239 26,000  Level Denver Center
Sat 03:31:09 PM 38.3031 -105.7106 278° West 213 245 26,000  Level Denver Center
Sat 03:32:11 PM 38.3114 -105.7933 277° West 213 245 26,000  Level Denver Center
Sat 03:33:13 PM 38.3194 -105.8622 278° West 207 238 26,000  Level Denver Center
Sat 03:34:15 PM 38.3256 -105.9403 276° West 202 232 26,000  Level Denver Center
Sat 03:35:17 PM 38.3328 -106.0072 278° West 201 231 26,000 -339 Level Denver Center
Sat 03:36:19 PM 38.3269 -106.0806 264° West 210 242 25,300 -823 Descending Denver Center
Sat 03:37:21 PM 38.3214 -106.1717 266° West 228 262 24,300 -919 Descending Denver Center
Sat 03:38:23 PM 38.3169 -106.2556 266° West 244 281 23,400 -927 Descending Denver Center
Sat 03:39:24 PM 38.3092 -106.3567 264° West 257 296 22,400 -878 Descending Denver Center
Sat 03:40:26 PM 38.3036 -106.4467 266° West 257 296 21,600 -1,016 Descending Denver Center
Sat 03:41:28 PM 38.2989 -106.5294 266° West 242 278 20,300 -823 Descending Denver Center
Sat 03:42:30 PM 38.2933 -106.6117 265° West 237 273 19,900 -823 Descending Denver Center
Sat 03:43:32 PM 38.2878 -106.6931 265° West 232 267 18,600 -1,161 Descending Denver Center
Sat 03:44:34 PM 38.2808 -106.7939 265° West 234 269 17,500 -774 Descending Denver Center
Sat 03:45:36 PM 38.2772 -106.8767 267° West 235 270 17,000 -581 Descending Denver Center
Sat 03:46:38 PM 38.2722 -106.9492 265° West 219 252 16,300 -532 Descending Denver Center
Sat 03:47:40 PM 38.2661 -107.0242 264° West 216 249 15,900 -194 Descending Denver Center
Sat 03:48:42 PM 38.2619 -107.0956 266° West 211 243 15,900  Level Denver Center
Sat 03:49:44 PM 38.2572 -107.1639 265° West 202 232 15,900  Level Denver Center
Sat 03:50:46 PM 38.2511 -107.2425 264° West 193 222 15,900  Level Denver Center
Sat 03:52:00 PM 38.2450 -107.3081 263° West 191 220 15,900  Level Denver Center
Sat 03:53:02 PM 38.2403 -107.3872 266° West 191 220 15,900  Level Denver Center
Sat 03:54:04 PM 38.2339 -107.4528 263° West 191 220 15,900  Level Denver Center
Sat 03:55:06 PM 38.2306 -107.5214 266° West 190 219 15,900  Level Denver Center
Sat 03:56:08 PM 38.2261 -107.5839 265° West 183 211 15,900  Level Denver Center
Sat 03:57:10 PM 38.2214 -107.6419 264° West 173 199 15,900 -290 Level Denver Center
Sat 03:58:12 PM 38.2047 -107.7042 251° West 158 182 15,300 -971 Descending Denver Center
Sat 03:59:26 PM 38.1936 -107.7614 256° West 162 186 13,700 -1,765 Descending Denver Center
Sat 04:00:28 PM 38.2167 -107.7458 28° Northeast 154 177 11,300 -1,161 Descending Denver Center
Sat 04:01:30 PM 38.2208 -107.7400 48° Northeast 128 147 11,300  Level Denver Center
Sat 04:03:00 PM 38.2990 -107.7800 338° Northwest  Level FlightAware Approximate
Sat 04:10:00 PM 38.5000 -107.8833 338° Northwest  Level FlightAware Approximate
Sat 04:11:00 PM 38.5098 -107.8942 319° Northwest  Level Estimated
Sat 04:12:00 PM 38.5098 -107.8942 North  Level Estimated
Sat 04:13:00 PM 38.5098 -107.8942 North  Level Estimated
Sat 04:14:00 PM 38.5098 -107.8942 North  Level Estimated
Sat 04:15:00 PM 38.5098 -107.8942 North  Level Estimated
Sat 04:16:00 PM 38.5098 -107.8942 North  Level Estimated
Sat 04:17:00 PM 38.5098 -107.8942 North  Level Estimated
Sat 04:18:00 PM 38.5098 -107.8942 North  Level Estimated
Sat 04:19:00 PM 38.5098 -107.8942 North  Level Estimated
Sat 04:20:00 PM 38.5098 -107.8942 North  Level Estimated
Sat 04:21:00 PM 38.5098 -107.8942 North  Level Estimated
Sat 04:22:00 PM 38.5098 -107.8942 North  Level Estimated

Login

Don't have an account? Register now (free) for customized features, flight alerts, and more!